Time;durP1;ratioP1;P1;durP2;ratioP2;P2;SDS_P1;SDS_P2;PMS_P1;PMS_P2;Temp;Humidity;BMP_temperature;BMP_pressure;BME280_temperature;BME280_humidity;BME280_pressure;Samples;Min_cycle;Max_cycle;Signal;HPM_P1;HPM_P2
2022/02/08 00:00:29;;;;;;;29.52;6.00;;;;;;;3.84;82.03;100017.91;5063627;28;20025;-64
2022/02/08 00:02:56;;;;;;;32.83;5.88;;;;;;;3.84;82.08;100011.91;5063356;28;20025;-64
2022/02/08 00:05:24;;;;;;;35.63;5.28;;;;;;;3.82;82.47;100006.75;5063707;28;20028;-64
2022/02/08 00:07:52;;;;;;;39.33;5.82;;;;;;;3.82;82.23;100004.19;5063158;28;20028;-64
2022/02/08 00:10:18;;;;;;;24.77;4.85;;;;;;;3.82;82.61;99993.91;5062148;28;20028;-64
2022/02/08 00:12:45;;;;;;;26.70;5.63;;;;;;;3.77;82.39;99987.84;5061786;28;20047;-64
2022/02/08 00:15:11;;;;;;;36.20;6.00;;;;;;;3.82;82.73;99977.63;5063229;28;20028;-65
2022/02/08 00:17:37;;;;;;;28.05;4.70;;;;;;;3.80;82.58;99980.16;5061823;28;20031;-64
2022/02/08 00:20:04;;;;;;;35.17;5.85;;;;;;;3.80;82.65;99993.00;5063399;28;20084;-64
2022/02/08 00:22:30;;;;;;;51.00;7.30;;;;;;;3.76;82.27;99995.53;5063178;28;20025;-64
2022/02/08 00:24:56;;;;;;;18.38;4.70;;;;;;;3.76;82.64;99992.97;5063204;28;20053;-64
2022/02/08 00:27:22;;;;;;;28.80;4.28;;;;;;;3.71;82.57;99991.19;5062961;28;20021;-64
2022/02/08 00:29:47;;;;;;;31.75;4.82;;;;;;;3.66;82.65;99985.13;5063311;28;20036;-64
2022/02/08 00:32:13;;;;;;;24.15;4.30;;;;;;;3.78;82.67;100007.56;5063200;28;20032;-63
2022/02/08 00:34:38;;;;;;;39.03;7.63;;;;;;;3.82;82.46;100003.31;5063344;28;20147;-64
2022/02/08 00:37:04;;;;;;;28.02;4.38;;;;;;;3.86;82.51;99996.50;5062938;28;20025;-63
2022/02/08 00:39:31;;;;;;;20.67;3.83;;;;;;;3.88;82.77;99994.84;5063104;28;20025;-63
2022/02/08 00:42:03;;;;;;;23.80;4.40;;;;;;;3.89;82.68;99993.97;5062679;28;20045;-63
2022/02/08 00:44:35;;;;;;;29.85;6.97;;;;;;;3.82;82.59;99986.19;5063044;28;20036;-63
2022/02/08 00:47:15;;;;;;;22.85;5.10;;;;;;;3.89;82.42;99987.16;5062978;28;20025;-64
2022/02/08 00:49:43;;;;;;;25.13;4.50;;;;;;;3.90;82.35;99980.31;5062993;28;20085;-63
2022/02/08 00:52:14;;;;;;;46.38;5.45;;;;;;;3.87;82.66;99958.00;5062975;28;20029;-63
2022/02/08 00:54:44;;;;;;;16.27;3.40;;;;;;;3.87;82.65;99934.91;5063191;28;20031;-64
2022/02/08 00:57:09;;;;;;;32.25;4.65;;;;;;;3.92;82.79;99914.41;5062621;28;20088;-63
2022/02/08 00:59:35;;;;;;;31.70;7.03;;;;;;;3.89;82.74;99917.81;5063026;28;20025;-63
2022/02/08 01:02:00;;;;;;;30.52;5.15;;;;;;;3.86;83.13;99909.19;5062795;28;20029;-63
2022/02/08 01:04:26;;;;;;;25.38;4.03;;;;;;;3.82;83.00;99908.28;5063384;28;20025;-62
2022/02/08 01:06:54;;;;;;;27.67;5.95;;;;;;;3.78;82.74;99901.41;5066402;28;20017;-62
2022/02/08 01:09:26;;;;;;;23.80;3.42;;;;;;;3.73;83.27;99909.06;5066610;28;20029;-62
2022/02/08 01:11:54;;;;;;;14.98;2.65;;;;;;;3.62;83.39;99905.50;5066699;28;20028;-63
2022/02/08 01:14:22;;;;;;;39.17;4.90;;;;;;;3.68;83.78;99906.44;5064990;28;20032;-64
2022/02/08 01:16:47;;;;;;;26.98;5.03;;;;;;;3.72;83.83;99907.34;5066430;28;20028;-62
2022/02/08 01:19:14;;;;;;;24.60;4.00;;;;;;;3.71;84.08;99890.19;5066466;28;20029;-63
2022/02/08 01:21:39;;;;;;;20.52;5.10;;;;;;;3.69;84.34;99897.88;5066338;28;20025;-62
2022/02/08 01:24:05;;;;;;;35.63;5.78;;;;;;;3.67;84.29;99902.16;5066506;28;20035;-62
2022/02/08 01:26:32;;;;;;;25.05;4.88;;;;;;;3.68;84.31;99905.56;5066331;28;20059;-62
2022/02/08 01:31:23;;;;;;;28.65;4.15;;;;;;;3.65;84.46;99888.44;5066473;28;20376;-63
2022/02/08 01:49:29;;;;;;;19.17;3.95;;;;;;;3.56;85.56;99835.25;5065817;28;20032;-62
2022/02/08 01:51:57;;;;;;;43.05;6.70;;;;;;;3.55;85.87;99838.69;5065789;28;20033;-62
2022/02/08 01:54:23;;;;;;;15.88;4.25;;;;;;;3.55;86.19;99824.97;5065871;28;20055;-63
2022/02/08 01:56:51;;;;;;;28.23;4.35;;;;;;;3.47;86.36;99794.09;5065765;28;20033;-62
2022/02/08 01:59:18;;;;;;;22.52;4.00;;;;;;;3.45;86.74;99786.38;5065627;28;20029;-63
2022/02/08 02:01:43;;;;;;;24.48;4.43;;;;;;;3.44;87.09;99794.06;5065815;28;20028;-64
2022/02/08 02:04:09;;;;;;;28.95;4.57;;;;;;;3.37;87.32;99798.28;5063919;28;20029;-64
2022/02/08 02:06:36;;;;;;;26.33;4.80;;;;;;;3.36;87.70;99796.56;5065297;28;20032;-63
2022/02/08 02:09:04;;;;;;;34.20;4.13;;;;;;;3.36;87.88;99791.44;5065588;28;20486;-64
2022/02/08 02:11:29;;;;;;;12.23;2.75;;;;;;;3.38;88.03;99773.47;5065671;28;20032;-66
2022/02/08 02:13:56;;;;;;;35.05;4.68;;;;;;;3.35;88.38;99769.19;5065424;28;20100;-66
2022/02/08 02:16:32;;;;;;;23.20;4.45;;;;;;;3.26;88.64;99741.72;5064188;28;20025;-67
2022/02/08 02:18:57;;;;;;;25.73;5.78;;;;;;;3.34;88.71;99752.91;5065272;28;20109;-65
2022/02/08 02:21:22;;;;;;;20.50;4.78;;;;;;;3.32;89.00;99731.50;5065069;28;20033;-65
2022/02/08 02:23:49;;;;;;;17.20;4.35;;;;;;;3.28;88.91;99727.19;5065217;28;20032;-64
2022/02/08 02:26:16;;;;;;;28.92;5.03;;;;;;;3.21;89.44;99718.56;5065025;28;20039;-65
2022/02/08 02:28:41;;;;;;;8.70;2.55;;;;;;;3.32;89.61;99717.84;5065020;28;20071;-65
2022/02/08 02:31:07;;;;;;;16.80;2.58;;;;;;;3.30;89.83;99715.25;5065297;28;20025;-65
2022/02/08 02:33:33;;;;;;;16.30;3.15;;;;;;;3.31;90.06;99703.28;5065026;28;20013;-66
2022/02/08 02:35:58;;;;;;;10.68;2.65;;;;;;;3.33;90.25;99716.97;5064984;28;20465;-65
2022/02/08 02:38:24;;;;;;;23.10;4.70;;;;;;;3.32;90.17;99699.88;5065181;28;20075;-65
2022/02/08 02:40:52;;;;;;;32.72;4.93;;;;;;;3.32;90.28;99687.88;5064717;28;20045;-65
2022/02/08 02:43:18;;;;;;;23.35;4.43;;;;;;;3.28;90.49;99698.09;5064504;28;20027;-64
2022/02/08 02:45:44;;;;;;;19.13;2.53;;;;;;;3.28;90.46;99706.69;5063413;28;20051;-65
2022/02/08 02:48:10;;;;;;;35.65;4.68;;;;;;;3.31;90.73;99698.13;5064715;28;20025;-65
2022/02/08 02:50:36;;;;;;;18.10;4.00;;;;;;;3.28;90.81;99680.16;5065028;28;20017;-65
2022/02/08 02:53:02;;;;;;;20.08;2.72;;;;;;;3.28;90.74;99665.63;5064787;28;20095;-66
2022/02/08 02:55:32;;;;;;;22.10;2.88;;;;;;;3.28;90.93;99659.63;5063320;28;20021;-66
2022/02/08 02:57:57;;;;;;;20.83;3.35;;;;;;;3.29;91.24;99663.94;5064702;28;20084;-65
2022/02/08 03:00:47;;;;;;;24.38;3.72;;;;;;;3.27;91.69;99642.53;5064976;28;20029;-65
2022/02/08 03:03:55;;;;;;;15.57;2.38;;;;;;;3.20;91.65;99627.06;5064263;28;20047;-65
2022/02/08 03:17:30;;;;;;;15.85;3.38;;;;;;;3.17;92.01;99627.06;5062928;28;20485;-66
2022/02/08 03:19:45;;;;;;;7.32;2.10;;;;;;;3.18;93.39;99607.41;5064429;28;20393;-67
2022/02/08 03:22:10;;;;;;;9.65;3.30;;;;;;;3.21;93.36;99608.25;5064125;28;20024;-67
2022/02/08 03:24:36;;;;;;;18.27;3.80;;;;;;;3.25;93.55;99603.16;5064069;28;20017;-67
2022/02/08 03:27:01;;;;;;;12.27;2.78;;;;;;;3.28;93.59;99603.19;5063833;28;20032;-67
2022/02/08 03:29:26;;;;;;;15.73;2.75;;;;;;;3.31;93.60;99592.94;5063747;28;20028;-65
2022/02/08 03:31:52;;;;;;;12.88;3.08;;;;;;;3.27;93.85;99586.09;5063015;28;20021;-67
2022/02/08 03:34:17;;;;;;;15.07;2.78;;;;;;;3.29;93.71;99574.97;5063928;28;20044;-67
2022/02/08 03:36:42;;;;;;;32.00;5.03;;;;;;;3.31;94.24;99564.72;5063855;28;20096;-66
2022/02/08 03:39:21;;;;;;;19.50;3.00;;;;;;;3.34;94.14;99567.31;5064041;28;20028;-66
2022/02/08 03:41:51;;;;;;;22.38;4.15;;;;;;;3.39;94.14;99557.09;5062406;28;20193;-65
2022/02/08 03:44:21;;;;;;;20.40;2.65;;;;;;;3.41;94.20;99545.13;5063694;28;20405;-66
2022/02/08 03:46:47;;;;;;;22.60;4.70;;;;;;;3.44;94.43;99563.97;5063954;28;20028;-65
2022/02/08 03:49:13;;;;;;;26.40;3.50;;;;;;;3.45;94.37;99550.28;5063645;28;20031;-66
2022/02/08 03:51:58;;;;;;;15.82;3.25;;;;;;;3.46;94.36;99552.03;5063512;28;20025;-66
2022/02/08 03:54:24;;;;;;;13.00;2.42;;;;;;;3.49;94.54;99520.38;5063713;28;20024;-67
2022/02/08 03:56:49;;;;;;;21.65;4.05;;;;;;;3.51;94.61;99528.09;5063745;28;20044;-66
2022/02/08 03:59:15;;;;;;;12.75;4.22;;;;;;;3.51;94.76;99518.69;5063330;28;20032;-66
2022/02/08 04:06:56;;;;;;;12.85;2.50;;;;;;;3.50;95.05;99493.03;5063220;28;20057;-66
2022/02/08 04:09:22;;;;;;;16.58;3.42;;;;;;;3.52;94.97;99504.13;5063420;28;20021;-67
2022/02/08 04:12:07;;;;;;;6.15;1.60;;;;;;;3.57;95.17;99498.19;5063280;28;20017;-66
2022/02/08 04:15:04;;;;;;;21.85;3.42;;;;;;;3.58;95.25;99493.91;5062074;28;20013;-67
2022/02/08 04:17:42;;;;;;;13.10;2.70;;;;;;;3.64;95.43;99483.69;5063341;28;20025;-67
2022/02/08 04:41:36;;;;;;;10.02;2.50;;;;;;;3.88;96.28;99450.41;5066821;28;20049;-67
2022/02/08 04:46:49;;;;;;;7.55;2.45;;;;;;;3.94;96.21;99435.88;5067253;28;20029;-67
2022/02/08 04:49:14;;;;;;;6.72;2.25;;;;;;;4.01;96.13;99420.50;5067001;28;20117;-67
2022/02/08 04:51:45;;;;;;;17.23;3.67;;;;;;;4.02;96.29;99420.50;5066898;28;20442;-67
2022/02/08 04:54:20;;;;;;;2.05;1.55;;;;;;;4.05;96.58;99424.78;5066978;28;20070;-68
2022/02/08 04:57:13;;;;;;;16.23;3.50;;;;;;;4.09;96.62;99423.91;5067055;28;20433;-68
2022/02/08 05:44:45;;;;;;;8.67;2.47;;;;;;;4.87;98.51;99372.56;5056892;28;20115;-67
2022/02/08 05:47:10;;;;;;;3.13;1.20;;;;;;;4.95;98.21;99364.81;5065472;28;20028;-68
2022/02/08 05:49:42;;;;;;;10.43;2.90;;;;;;;4.98;98.44;99363.94;5065892;28;20017;-66
2022/02/08 05:54:38;;;;;;;2.42;1.35;;;;;;;5.06;98.49;99367.38;5065703;28;20025;-67
2022/02/08 05:57:04;;;;;;;8.25;1.95;;;;;;;5.13;98.67;99363.91;5065590;28;20088;-67
2022/02/08 05:59:29;;;;;;;2.83;1.42;;;;;;;5.15;98.52;99375.06;5065516;28;20029;-65
2022/02/08 06:01:55;;;;;;;4.28;1.05;;;;;;;5.18;98.69;99364.75;5065340;28;20028;-65
2022/02/08 06:04:20;;;;;;;260.42;23.42;;;;;;;5.22;98.65;99370.75;5065107;28;20020;-65
2022/02/08 06:06:46;;;;;;;12.30;2.50;;;;;;;5.28;99.02;99380.16;5065165;28;20028;-67
2022/02/08 06:09:11;;;;;;;7.88;1.70;;;;;;;5.28;98.92;99342.41;5065397;28;20032;-68
2022/02/08 06:11:38;;;;;;;11.57;2.53;;;;;;;5.30;98.99;99347.56;5065252;28;20025;-67
2022/02/08 06:14:05;;;;;;;5.25;1.88;;;;;;;5.34;98.79;99318.38;5065174;28;20055;-64
2022/02/08 06:16:34;;;;;;;16.75;3.72;;;;;;;5.37;98.80;99336.38;5065155;28;20029;-65
2022/02/08 06:18:59;;;;;;;18.33;3.42;;;;;;;5.43;98.83;99317.47;5065115;28;20361;-65
2022/02/08 06:21:24;;;;;;;22.98;4.68;;;;;;;5.46;98.95;99326.03;5064836;28;20503;-64
2022/02/08 06:23:50;;;;;;;15.82;3.78;;;;;;;5.49;98.59;99334.59;5064919;28;20094;-64
2022/02/08 06:26:16;;;;;;;13.68;3.95;;;;;;;5.49;98.52;99330.31;5064867;28;20032;-63
2022/02/08 06:28:43;;;;;;;9.88;2.63;;;;;;;5.49;98.53;99332.03;5064835;28;20029;-65
2022/02/08 06:31:09;;;;;;;6.28;1.90;;;;;;;5.46;98.52;99320.88;5064804;28;20039;-65
2022/02/08 06:33:35;;;;;;;13.55;3.60;;;;;;;5.54;98.18;99327.72;5064951;28;20039;-64
2022/02/08 06:36:00;;;;;;;22.88;4.57;;;;;;;5.50;98.39;99321.72;5064661;28;20033;-64
2022/02/08 06:38:25;;;;;;;10.18;3.08;;;;;;;5.46;98.11;99295.13;5064806;28;20104;-65
2022/02/08 06:40:53;;;;;;;11.20;1.80;;;;;;;5.46;98.23;99318.28;5064545;28;20146;-64
2022/02/08 06:43:20;;;;;;;9.73;2.90;;;;;;;5.44;98.43;99317.47;5064687;28;20040;-64
2022/02/08 06:45:46;;;;;;;10.05;2.28;;;;;;;5.52;98.69;99344.88;5064988;28;20024;-65
2022/02/08 06:48:11;;;;;;;11.68;2.35;;;;;;;5.55;98.50;99358.59;5064187;28;20060;-65
2022/02/08 06:50:37;;;;;;;26.42;3.20;;;;;;;5.53;98.46;99355.19;5064883;28;20032;-65
2022/02/08 06:53:03;;;;;;;25.83;6.78;;;;;;;5.54;98.43;99379.22;5064403;28;20491;-65
2022/02/08 06:55:28;;;;;;;14.90;3.83;;;;;;;5.55;98.46;99371.47;5064607;28;20088;-65
2022/02/08 06:58:04;;;;;;;23.27;4.60;;;;;;;5.55;98.31;99370.63;5064378;28;20451;-65
2022/02/08 07:00:35;;;;;;;20.23;5.05;;;;;;;5.50;98.23;99391.22;5064456;28;20021;-65
2022/02/08 07:03:12;;;;;;;19.73;3.70;;;;;;;5.47;97.94;99396.41;5063732;28;20097;-64
2022/02/08 07:05:38;;;;;;;20.63;3.78;;;;;;;5.45;97.50;99400.69;5064493;28;20027;-66
2022/02/08 07:08:04;;;;;;;23.25;4.18;;;;;;;5.38;97.42;99406.72;5064180;28;20087;-64
2022/02/08 07:10:31;;;;;;;24.63;3.40;;;;;;;5.29;97.18;99397.31;5064145;28;20053;-65
2022/02/08 07:12:57;;;;;;;27.35;3.10;;;;;;;5.25;96.82;99399.06;5064364;28;20053;-64
2022/02/08 07:15:23;;;;;;;25.50;4.03;;;;;;;5.21;96.52;99407.63;5064327;28;20143;-66
2022/02/08 07:17:49;;;;;;;30.83;4.10;;;;;;;5.14;96.49;99411.94;5064409;28;20226;-65
2022/02/08 07:20:14;;;;;;;33.95;5.60;;;;;;;5.06;96.25;99418.81;5064414;28;20025;-67
2022/02/08 07:22:40;;;;;;;41.70;4.72;;;;;;;5.03;95.92;99413.69;5064169;28;20029;-66
2022/02/08 07:25:06;;;;;;;38.42;4.60;;;;;;;4.96;95.84;99405.09;5064202;28;20021;-67
2022/02/08 07:27:32;;;;;;;39.10;5.22;;;;;;;4.92;95.74;99422.25;5063718;28;20029;-66
2022/02/08 07:29:57;;;;;;;20.60;4.50;;;;;;;4.89;95.88;99414.53;5063663;28;20078;-69
2022/02/08 07:32:37;;;;;;;39.03;6.38;;;;;;;4.89;95.50;99422.25;5063873;28;20079;-67
2022/02/08 07:40:44;;;;;;;48.72;6.50;;;;;;;4.95;95.41;99436.84;5063343;28;20040;-68
2022/02/08 07:43:10;;;;;;;32.90;6.60;;;;;;;5.02;95.24;99429.94;5063361;28;20056;-68
2022/02/08 07:45:35;;;;;;;44.78;7.10;;;;;;;5.14;94.95;99435.09;5063694;28;20457;-67
2022/02/08 07:48:00;;;;;;;32.83;5.90;;;;;;;5.26;95.21;99441.06;5063240;28;20480;-66
2022/02/08 07:50:27;;;;;;;30.15;5.20;;;;;;;5.32;94.58;99426.47;5063377;28;20044;-65
2022/02/08 07:52:53;;;;;;;37.13;7.65;;;;;;;5.42;94.07;99427.31;5063174;28;20487;-67
2022/02/08 07:55:20;;;;;;;26.75;6.43;;;;;;;5.58;94.15;99433.25;5063413;28;20021;-67
2022/02/08 07:57:46;;;;;;;27.98;5.65;;;;;;;5.76;93.55;99443.50;5062932;28;20531;-65
2022/02/08 08:00:12;;;;;;;21.77;4.75;;;;;;;5.86;93.53;99444.31;5062966;28;20029;-64
2022/02/08 08:02:38;;;;;;;35.63;6.45;;;;;;;5.95;92.43;99449.41;5062999;28;20025;-64
2022/02/08 08:05:05;;;;;;;15.18;3.40;;;;;;;6.10;91.63;99452.81;5062915;28;20035;-64
2022/02/08 08:07:30;;;;;;;33.20;5.57;;;;;;;6.19;90.97;99447.59;5062814;28;20029;-64
2022/02/08 08:09:55;;;;;;;41.53;7.72;;;;;;;6.31;89.53;99465.56;5062883;28;20108;-65
2022/02/08 08:12:22;;;;;;;39.38;6.32;;;;;;;6.51;89.47;99466.31;5063054;28;20052;-64
2022/02/08 08:14:48;;;;;;;38.88;7.72;;;;;;;6.67;89.42;99465.34;5062198;28;20032;-64
2022/02/08 08:20:11;;;;;;;41.58;6.63;;;;;;;7.19;88.80;99470.03;5050093;28;20037;-64
2022/02/08 08:22:37;;;;;;;38.42;6.40;;;;;;;7.46;88.47;99477.56;5062681;28;20023;-64
2022/02/08 08:25:03;;;;;;;42.75;8.88;;;;;;;7.52;86.41;99480.94;5062929;28;20120;-64
2022/02/08 08:27:29;;;;;;;50.30;8.90;;;;;;;7.27;86.36;99481.16;5062804;28;20032;-64
2022/02/08 08:29:54;;;;;;;45.58;7.15;;;;;;;7.13;86.63;99489.03;5062688;28;20024;-64
2022/02/08 08:32:19;;;;;;;47.00;7.35;;;;;;;7.00;86.71;99501.19;5061470;28;20033;-63
2022/02/08 08:34:45;;;;;;;48.65;7.55;;;;;;;6.90;85.88;99494.41;5062733;28;20401;-64
2022/02/08 08:37:10;;;;;;;51.78;9.57;;;;;;;6.73;86.72;99489.34;5062446;28;20044;-63
2022/02/08 08:39:42;;;;;;;52.10;8.30;;;;;;;6.63;86.97;99497.16;5062419;28;20100;-63
2022/02/08 08:53:14;;;;;;;36.13;5.72;;;;;;;8.79;81.75;99492.22;5039706;28;20052;-64
2022/02/08 08:55:40;;;;;;;39.58;7.32;;;;;;;9.18;79.40;99501.94;5039682;28;20464;-64
2022/02/08 08:58:05;;;;;;;50.17;7.22;;;;;;;9.36;77.62;99492.97;5039845;28;20029;-64
2022/02/08 09:00:30;;;;;;;37.20;6.00;;;;;;;9.41;77.63;99483.41;5039877;28;20321;-64
2022/02/08 09:02:56;;;;;;;47.35;6.85;;;;;;;9.66;78.18;99503.66;5039827;28;20021;-64
2022/02/08 09:05:21;;;;;;;36.53;6.13;;;;;;;9.95;76.08;99495.34;5039777;28;20032;-63
2022/02/08 09:07:47;;;;;;;41.40;7.05;;;;;;;10.16;74.71;99496.59;5039424;28;20061;-63
2022/02/08 09:10:20;;;;;;;41.63;8.85;;;;;;;10.23;73.47;99507.72;5039697;28;20021;-63
2022/02/08 09:12:59;;;;;;;47.00;8.75;;;;;;;10.38;74.10;99516.91;5039439;28;20033;-62
2022/02/08 09:15:36;;;;;;;39.25;6.88;;;;;;;10.59;73.13;99520.78;5039407;28;20176;-63
2022/02/08 09:18:22;;;;;;;27.90;6.28;;;;;;;10.74;71.34;99511.81;5039564;28;20049;-63
2022/02/08 09:28:22;;;;;;;42.88;8.15;;;;;;;10.94;71.88;99530.41;5066010;28;20414;-64
2022/02/08 09:30:56;;;;;;;35.53;6.70;;;;;;;10.96;72.73;99526.03;5066019;28;20025;-64
2022/02/08 09:33:21;;;;;;;40.78;8.32;;;;;;;11.19;71.28;99534.97;5065860;28;20017;-64
2022/02/08 09:35:47;;;;;;;31.42;6.70;;;;;;;11.34;70.66;99544.97;5065985;28;20025;-64
2022/02/08 09:38:13;;;;;;;42.58;8.45;;;;;;;11.49;71.43;99551.53;5065468;28;20444;-64
2022/02/08 09:40:38;;;;;;;39.90;7.13;;;;;;;11.85;72.17;99553.19;5065473;28;20079;-64
2022/02/08 09:43:05;;;;;;;51.33;8.07;;;;;;;12.11;69.57;99556.84;5065420;28;20025;-63
2022/02/08 09:45:33;;;;;;;35.28;8.00;;;;;;;12.08;69.11;99584.69;5065558;28;20059;-64
2022/02/08 09:48:09;;;;;;;35.13;6.30;;;;;;;12.16;66.63;99581.91;5065569;28;20044;-64
2022/02/08 09:50:36;;;;;;;40.53;7.28;;;;;;;11.69;67.94;99586.56;5065476;28;20029;-64
2022/02/08 09:53:06;;;;;;;45.90;8.20;;;;;;;11.39;68.29;99586.44;5065163;28;20017;-64
2022/02/08 09:55:36;;;;;;;49.80;9.48;;;;;;;11.17;69.24;99601.72;5065100;28;20082;-64
2022/02/08 09:58:02;;;;;;;40.40;7.93;;;;;;;11.02;68.54;99596.84;5065300;28;20127;-64
2022/02/08 10:00:27;;;;;;;34.88;8.60;;;;;;;11.02;69.61;99609.00;5065070;28;20051;-63
2022/02/08 10:03:06;;;;;;;43.15;9.70;;;;;;;11.03;70.91;99613.28;5065102;28;20047;-63
2022/02/08 10:05:52;;;;;;;44.00;6.70;;;;;;;11.10;70.35;99611.41;5065444;28;20029;-64
2022/02/08 10:08:18;;;;;;;47.63;7.82;;;;;;;11.10;67.63;99608.81;5064980;28;20032;-63
2022/02/08 10:10:44;;;;;;;50.83;9.27;;;;;;;11.05;69.97;99616.72;5065206;28;20056;-62
2022/02/08 10:21:45;;;;;;;27.20;7.95;;;;;;;11.75;68.09;99612.41;5041981;28;20037;-64
2022/02/08 10:24:13;;;;;;;35.58;7.78;;;;;;;11.93;66.29;99593.75;5041949;28;20034;-63
2022/02/08 10:29:24;;;;;;;29.73;4.82;;;;;;;12.13;65.78;99594.09;5042074;28;20029;-64
2022/02/08 10:40:04;;;;;;;30.38;6.03;;;;;;;11.24;63.25;99595.47;5041703;28;20026;-69
2022/02/08 10:42:30;;;;;;;20.30;5.53;;;;;;;11.27;63.75;99595.41;5041693;28;20045;-64
2022/02/08 10:44:57;;;;;;;34.53;6.05;;;;;;;10.97;63.72;99603.03;5041610;28;20064;-64
2022/02/08 10:47:40;;;;;;;27.33;5.22;;;;;;;10.60;64.95;99579.63;5025184;28;20124;-64
2022/02/08 10:50:08;;;;;;;18.15;4.32;;;;;;;10.30;64.62;99587.13;5041393;28;20072;-65
2022/02/08 10:52:35;;;;;;;27.02;5.65;;;;;;;10.04;64.22;99588.50;5041298;28;20032;-63
2022/02/08 10:55:11;;;;;;;36.00;6.20;;;;;;;9.91;64.79;99590.47;5041497;28;20032;-64
2022/02/08 10:57:49;;;;;;;19.83;4.22;;;;;;;9.85;63.56;99581.09;5055828;28;20040;-66
2022/02/08 11:00:20;;;;;;;27.08;5.55;;;;;;;9.69;65.15;99598.66;5062675;28;20029;-64
2022/02/08 11:02:49;;;;;;;23.97;4.27;;;;;;;9.59;64.71;99592.78;5063997;28;20021;-65
2022/02/08 11:20:56;;;;;;;45.85;6.63;;;;;;;10.71;63.69;99613.13;5063757;28;20032;-63
2022/02/08 11:23:32;;;;;;;23.67;4.35;;;;;;;10.77;62.82;99622.50;5063619;28;20021;-63
2022/02/08 11:25:59;;;;;;;39.58;5.80;;;;;;;10.83;63.35;99627.56;5063770;28;20017;-64
2022/02/08 11:28:33;;;;;;;33.08;5.68;;;;;;;11.00;63.26;99634.13;5063539;28;20057;-62
2022/02/08 11:31:21;;;;;;;33.38;6.43;;;;;;;11.36;61.68;99615.97;5064008;28;20024;-63
2022/02/08 11:56:00;;;;;;;19.52;4.65;;;;;;;11.39;59.63;99664.41;5063415;28;20035;-64
2022/02/08 11:58:38;;;;;;;20.80;4.82;;;;;;;11.04;58.24;99656.53;5063166;28;20060;-63
2022/02/08 12:01:15;;;;;;;17.38;3.88;;;;;;;10.04;59.10;99674.94;5063301;28;20066;-64
2022/02/08 12:04:09;;;;;;;21.00;3.92;;;;;;;9.04;60.94;99680.84;5062968;28;20096;-64
2022/02/08 12:06:50;;;;;;;19.00;3.92;;;;;;;8.35;63.54;99689.41;5062539;28;20020;-64
2022/02/08 12:09:24;;;;;;;25.58;4.32;;;;;;;7.85;64.16;99705.38;5062881;28;20047;-63
2022/02/08 12:31:21;;;;;;;14.77;3.53;;;;;;;6.69;69.06;99723.28;5062838;28;20047;-62
2022/02/08 12:33:56;;;;;;;23.73;3.40;;;;;;;6.61;69.68;99759.41;5062581;28;20037;-63
2022/02/08 12:36:43;;;;;;;31.30;5.55;;;;;;;6.63;69.55;99764.56;5062401;28;20028;-63
2022/02/08 12:48:38;;;;;;;13.60;3.08;;;;;;;6.65;70.33;99776.59;5062650;28;20079;-63
2022/02/08 13:00:49;;;;;;;20.88;5.40;;;;;;;6.59;71.73;99778.31;5063334;28;20111;-63
2022/02/08 13:03:44;;;;;;;25.70;4.85;;;;;;;6.62;72.50;99781.75;5066189;28;20029;-63
2022/02/08 14:06:19;;;;;;;33.28;5.72;;;;;;;5.83;75.58;99834.16;5066184;28;20040;-63
2022/02/08 14:09:04;;;;;;;23.38;3.95;;;;;;;5.83;75.62;99840.16;5065617;28;20048;-63
2022/02/08 14:14:14;;;;;;;26.45;4.88;;;;;;;5.89;75.05;99859.94;5065781;28;20017;-63
2022/02/08 14:21:51;;;;;;;28.67;4.60;;;;;;;5.82;73.61;99850.47;5065406;28;20021;-63
2022/02/08 14:24:30;;;;;;;19.50;5.15;;;;;;;5.82;73.01;99847.88;5065729;28;20102;-63
2022/02/08 14:59:48;;;;;;;28.42;5.40;;;;;;;5.67;76.94;99920.84;5064878;28;20032;-63
2022/02/08 15:07:30;;;;;;;31.38;5.82;;;;;;;5.54;76.74;99914.78;5064533;28;20028;-64
2022/02/08 15:09:57;;;;;;;34.75;5.53;;;;;;;5.50;76.54;99928.47;5064385;28;20495;-63
2022/02/08 15:12:25;;;;;;;14.63;2.73;;;;;;;5.38;76.67;99922.44;5064537;28;20025;-64
2022/02/08 15:14:54;;;;;;;36.70;4.93;;;;;;;5.34;76.37;99925.81;5064248;28;20246;-63
2022/02/08 15:17:19;;;;;;;28.48;6.35;;;;;;;5.30;76.53;99937.81;5064221;28;20028;-62
2022/02/08 15:19:48;;;;;;;19.65;3.10;;;;;;;5.26;76.80;99936.06;5063968;28;20025;-62
2022/02/08 15:22:14;;;;;;;49.45;8.52;;;;;;;5.27;76.78;99952.38;5064050;28;20028;-63
2022/02/08 15:24:41;;;;;;;33.58;4.43;;;;;;;5.07;77.20;99928.25;5063456;28;20057;-63
2022/02/08 15:27:09;;;;;;;46.72;8.05;;;;;;;5.17;77.25;99951.47;5064125;28;20017;-63
2022/02/08 15:29:34;;;;;;;29.13;7.07;;;;;;;5.13;77.68;99950.56;5063999;28;20044;-64
2022/02/08 15:32:02;;;;;;;28.00;5.18;;;;;;;5.10;77.88;99934.28;5064123;28;20020;-63
2022/02/08 15:34:27;;;;;;;29.02;5.70;;;;;;;5.13;77.79;99945.44;5063940;28;20085;-63
2022/02/08 15:36:55;;;;;;;28.63;4.47;;;;;;;5.10;77.68;99942.00;5063785;28;20048;-63
2022/02/08 15:39:20;;;;;;;32.17;4.97;;;;;;;5.07;77.47;99945.38;5063845;28;20017;-63
2022/02/08 15:41:46;;;;;;;38.92;5.38;;;;;;;5.03;77.17;99938.50;5063536;28;20067;-63
2022/02/08 15:44:17;;;;;;;24.33;4.97;;;;;;;5.00;77.34;99944.47;5063805;28;20021;-62
2022/02/08 15:46:42;;;;;;;31.90;5.30;;;;;;;4.95;77.20;99952.16;5063795;28;20029;-63
2022/02/08 15:49:08;;;;;;;26.92;4.53;;;;;;;4.95;77.63;99952.16;5063611;28;20021;-64
2022/02/08 16:07:04;;;;;;;27.10;4.35;;;;;;;4.81;79.45;99990.66;5063245;28;20172;-63
2022/02/08 16:12:23;;;;;;;52.00;6.30;;;;;;;4.71;80.14;99997.41;5063468;28;20060;-64
2022/02/08 16:17:40;;;;;;;27.23;5.90;;;;;;;4.68;80.50;100014.56;5063162;28;20393;-64
2022/02/08 16:59:46;;;;;;;48.05;8.70;;;;;;;4.39;83.09;100059.69;5044124;28;20034;-63
2022/02/08 17:02:18;;;;;;;40.90;6.43;;;;;;;4.36;83.14;100062.19;5044105;28;20029;-64
2022/02/08 17:04:43;;;;;;;35.25;6.13;;;;;;;4.40;83.35;100066.53;5044231;28;20462;-63
2022/02/08 17:07:09;;;;;;;61.53;7.40;;;;;;;4.40;83.41;100073.38;5043738;28;20034;-63
2022/02/08 17:09:47;;;;;;;54.35;7.68;;;;;;;4.40;83.28;100075.94;5043950;28;20033;-63
2022/02/08 17:18:13;;;;;;;45.63;6.68;;;;;;;4.37;83.00;100081.91;5044000;28;20045;-65
2022/02/08 17:50:03;;;;;;;32.55;5.32;;;;;;;4.38;83.25;100104.19;5065779;28;20032;-64
2022/02/08 17:52:28;;;;;;;27.80;4.70;;;;;;;4.43;83.22;100105.13;5065554;28;20084;-64
2022/02/08 17:54:54;;;;;;;29.75;4.38;;;;;;;4.38;83.19;100099.06;5065731;28;20503;-62
2022/02/08 17:57:19;;;;;;;43.10;6.07;;;;;;;4.41;83.24;100095.69;5065721;28;20017;-64
2022/02/08 17:59:45;;;;;;;47.58;7.72;;;;;;;4.40;83.00;100094.81;5065700;28;20550;-62
2022/02/08 18:02:10;;;;;;;37.55;6.50;;;;;;;4.36;83.12;100090.47;5065727;28;20025;-63
2022/02/08 18:04:36;;;;;;;19.50;5.55;;;;;;;4.35;83.26;100088.75;5065548;28;20574;-62
2022/02/08 18:07:02;;;;;;;38.90;7.22;;;;;;;4.34;83.46;100087.88;5065544;28;20101;-63
2022/02/08 18:09:29;;;;;;;54.17;7.75;;;;;;;4.39;83.47;100077.66;5065502;28;20055;-62
2022/02/08 18:11:57;;;;;;;44.03;5.75;;;;;;;4.40;83.55;100081.09;5065535;28;20021;-65
2022/02/08 18:14:23;;;;;;;56.83;7.70;;;;;;;4.39;83.30;100087.06;5065277;28;20013;-63
2022/02/08 18:17:03;;;;;;;46.72;7.30;;;;;;;4.36;82.93;100085.31;5065601;28;20091;-64
2022/02/08 18:19:33;;;;;;;12.30;3.38;;;;;;;4.34;82.85;100089.59;5065113;28;20025;-63
2022/02/08 18:22:21;;;;;;;49.53;9.18;;;;;;;4.31;82.69;100098.13;5064647;28;20032;-63
2022/02/08 18:28:18;;;;;;;25.33;5.93;;;;;;;4.36;82.62;100102.47;5064760;28;20056;-65
2022/02/08 19:21:10;;;;;;;42.63;5.43;;;;;;;4.10;83.56;100152.69;5064141;28;20036;-62
2022/02/08 19:23:37;;;;;;;31.90;6.30;;;;;;;4.12;83.47;100147.56;5063723;28;20021;-62
2022/02/08 19:26:07;;;;;;;25.80;4.85;;;;;;;4.12;83.79;100147.56;5064238;28;20037;-63
2022/02/08 19:28:33;;;;;;;38.42;5.55;;;;;;;4.02;83.79;100149.13;5064139;28;20107;-64
2022/02/08 19:30:58;;;;;;;41.97;6.85;;;;;;;4.08;83.60;100154.34;5064021;28;20048;-64
2022/02/08 19:33:26;;;;;;;28.10;4.78;;;;;;;4.11;83.54;100158.66;5064128;28;20135;-64
2022/02/08 19:35:52;;;;;;;25.40;5.88;;;;;;;4.07;83.70;100144.94;5063958;28;20025;-65
2022/02/08 19:38:18;;;;;;;40.88;7.10;;;;;;;4.07;83.75;100160.34;5063713;28;20088;-64
2022/02/08 19:40:44;;;;;;;32.33;5.05;;;;;;;4.04;83.45;100165.44;5063647;28;20128;-64
2022/02/08 19:43:10;;;;;;;30.65;4.97;;;;;;;4.05;83.55;100169.72;5063829;28;20108;-65